Latest Weather Observations for Mallacoota

IDV60801

Issued at 8:02 pm EST Saturday 4 July 2015 (issued every 30 minutes, with the page automatically refreshed every 10 minutes)

About weather observations | Map of weather stations | Latest weather observations for VIC | Other Formats
Station Details ID: 084084 Name: MALLACOOTA Lat: -37.60 Lon: 149.73 Height: 22.0 m
Data from the previous 72 hours. | See also: Recent months at Mallacoota
Date/Time
EST
Temp
°C
App
Temp
°C
Dew
Point
Rel
Hum
%
Delta-T
°C
Wind Press
QNH
hPa
Press
MSL
hPa
Rain
since 9 am
mm
Dir
 
Spd
km/h
Gust
km/h
Spd
kts
Gust
kts
04/08:00pm 11.4 8.3 5.7 68 2.6 W 11 17 6 9 1019.3 - 0.0
04/07:30pm 11.3 8.2 5.6 68 2.6 W 11 17 6 9 1019.3 - 0.0
04/07:00pm 11.3 8.2 5.6 68 2.6 W 11 19 6 10 1019.4 - 0.0
04/06:30pm 11.6 8.5 5.7 67 2.7 W 11 19 6 10 1019.4 - 0.0
04/06:00pm 11.5 8.5 5.8 68 2.6 WSW 11 20 6 11 1019.1 1019.1 0.0
04/05:30pm 11.5 8.2 6.4 71 2.4 WSW 13 26 7 14 1019.0 - 0.0
04/05:00pm 11.1 8.9 6.0 71 2.4 W 7 13 4 7 1019.0 - 0.0
04/04:30pm 11.7 9.5 6.2 69 2.6 W 7 9 4 5 1018.9 - 0.0
04/04:00pm 12.8 9.8 6.2 64 3.1 WSW 11 20 6 11 1018.7 - 0.0
04/03:30pm 13.3 10.4 6.6 64 3.2 W 11 22 6 12 1018.6 - 0.0
04/03:00pm 13.2 10.8 6.8 65 3.1 W 9 17 5 9 1018.6 1018.6 0.0
04/02:30pm 13.6 11.1 6.7 63 3.3 W 9 13 5 7 1018.5 - 0.0
04/02:00pm 13.5 10.9 6.1 61 3.5 W 9 17 5 9 1018.5 - 0.0
04/01:30pm 13.7 10.2 5.6 58 3.8 W 13 20 7 11 1018.5 - 0.0
04/01:00pm 13.6 11.3 5.7 59 3.7 W 7 15 4 8 1018.8 - 0.0
04/12:30pm 13.4 10.7 5.6 59 3.7 WNW 9 15 5 8 1019.0 - 0.0
04/12:00pm 12.8 9.6 5.2 60 3.5 NNW 11 17 6 9 1019.5 1019.5 0.0
04/11:30am 12.0 9.1 4.7 61 3.3 NNW 9 15 5 8 1020.1 - 0.0
04/11:00am 11.0 8.0 4.0 62 3.1 N 9 13 5 7 1020.5 - 0.0
04/10:30am 10.9 8.4 4.8 66 2.8 NNW 7 11 4 6 1020.9 - 0.0
04/10:00am 9.5 6.4 3.5 66 2.6 NW 9 13 5 7 1021.0 - 0.0
04/09:30am 7.6 3.8 1.9 67 2.3 WNW 11 17 6 9 1021.0 - 0.0
04/09:00am 6.3 2.2 2.4 76 1.6 WNW 13 19 7 10 1020.9 1020.9 0.0
04/08:30am 3.9 0.0 1.4 84 1.0 NW 11 15 6 8 1021.0 - 0.0
04/08:00am 3.2 -1.1 0.9 85 0.9 NW 13 19 7 10 1021.1 - 0.0
04/07:30am 3.3 -0.6 1.0 85 0.9 NW 11 17 6 9 1021.4 - 0.0
04/07:00am 3.1 -0.9 0.8 85 0.9 NW 11 17 6 9 1021.4 - 0.0
04/06:30am 3.0 -1.0 0.7 85 0.9 NW 11 15 6 8 1021.5 - 0.0
04/06:00am 3.0 -0.6 0.6 84 0.9 NW 9 13 5 7 1021.3 1021.4 0.0
04/05:30am 3.9 0.0 1.1 82 1.1 WNW 11 17 6 9 1021.2 - 0.0
04/05:00am 3.8 -0.1 1.2 83 1.0 WNW 11 15 6 8 1021.3 - 0.0
04/04:30am 3.9 0.4 1.3 83 1.0 WNW 9 13 5 7 1021.3 - 0.0
04/04:00am 4.0 0.1 1.4 83 1.0 WNW 11 17 6 9 1021.6 - 0.0
04/03:30am 3.8 -0.1 1.4 84 0.9 WNW 11 17 6 9 1021.9 - 0.0
04/03:00am 3.8 -0.4 1.5 85 0.9 WNW 13 17 7 9 1022.2 1022.3 0.0
04/02:30am 3.3 -0.6 1.2 86 0.8 NW 11 17 6 9 1022.3 - 0.0
04/02:00am 3.3 -0.2 1.0 85 0.9 NW 9 15 5 8 1022.5 - 0.0
04/01:30am 3.8 0.0 1.5 85 0.9 WNW 11 20 6 11 1022.7 - 0.0
04/01:00am 3.7 -0.5 1.6 86 0.8 WNW 13 20 7 11 1023.0 - 0.0
04/12:30am 3.4 -0.5 1.3 86 0.8 WNW 11 19 6 10 1023.2 - 0.0
04/12:00am 3.6 -0.2 1.5 86 0.8 NW 11 17 6 9 1023.5 1023.6 0.0
 
Date/Time
EST
Temp
°C
App
Temp
°C
Dew
Point
Rel
Hum
%
Delta-T
°C
Wind Press
QNH
hPa
Press
MSL
hPa
Rain
since 9 am
mm
Dir
 
Spd
km/h
Gust
km/h
Spd
kts
Gust
kts
03/11:30pm 3.6 -0.3 1.3 85 0.9 NW 11 15 6 8 1023.7 - 0.0
03/11:00pm 3.7 -0.2 1.3 84 0.9 NW 11 17 6 9 1023.9 - 0.0
03/10:30pm 3.8 -0.1 1.2 83 1.0 NW 11 15 6 8 1024.2 - 0.0
03/10:00pm 4.1 -0.2 1.3 82 1.1 NW 13 17 7 9 1024.4 - 0.0
03/09:30pm 4.1 0.6 1.0 80 1.2 NW 9 13 5 7 1024.6 - 0.0
03/09:00pm 4.4 1.2 0.7 77 1.4 NW 7 9 4 5 1024.9 1025.0 0.0
03/08:30pm 5.7 2.2 1.1 72 1.8 NW 9 13 5 7 1025.1 - 0.0
03/08:00pm 7.3 3.8 1.2 65 2.5 WNW 9 13 5 7 1025.1 - 0.0
03/07:30pm 6.7 2.9 1.6 70 2.1 WNW 11 17 6 9 1025.1 - 0.0
03/07:00pm 7.0 3.6 1.7 69 2.2 W 9 13 5 7 1025.0 - 0.0
03/06:30pm 7.2 3.8 2.1 70 2.1 W 9 17 5 9 1024.9 - 0.0
03/06:00pm 7.7 3.6 2.2 68 2.3 WNW 13 22 7 12 1024.7 1024.8 0.0
03/05:30pm 8.6 4.2 2.6 66 2.5 W 15 24 8 13 1024.8 - 0.0
03/05:00pm 8.9 5.0 3.3 68 2.4 WNW 13 20 7 11 1024.6 - 0.0
03/04:30pm 9.3 5.0 3.3 66 2.6 W 15 24 8 13 1024.7 - 0.0
03/04:00pm 9.7 5.9 4.1 68 2.5 W 13 24 7 13 1024.7 - 0.0
03/03:30pm 10.1 7.2 4.9 70 2.3 W 9 13 5 7 1024.5 - 0.0
03/03:00pm 10.4 7.5 4.5 67 2.6 WNW 9 15 5 8 1024.3 1024.4 0.0
03/02:30pm 10.4 7.1 4.3 66 2.7 WNW 11 22 6 12 1024.2 - 0.0
03/02:00pm 10.3 6.6 4.2 66 2.7 W 13 22 7 12 1024.4 - 0.0
03/01:30pm 10.5 6.4 4.4 66 2.7 W 15 26 8 14 1024.6 - 0.0
03/01:00pm 10.4 6.3 4.5 67 2.6 W 15 24 8 13 1025.0 - 0.0
03/12:30pm 10.0 5.5 4.2 67 2.6 W 17 24 9 13 1025.3 - 0.0
03/12:00pm 11.4 7.6 5.9 69 2.5 W 15 24 8 13 1025.7 1025.8 0.0
03/11:30am 9.6 5.7 5.2 74 2.0 W 15 22 8 12 1026.2 - 0.0
03/11:00am 9.2 5.2 5.0 75 1.9 W 15 24 8 13 1026.6 - 0.0
03/10:30am 8.6 4.5 4.6 76 1.8 W 15 28 8 15 1026.7 - 0.0
03/10:00am 8.2 3.8 4.6 78 1.6 W 17 28 9 15 1026.8 - 0.0
03/09:30am 7.9 3.9 4.7 80 1.4 W 15 28 8 15 1026.9 - 0.0
03/09:00am 7.4 3.4 4.7 83 1.2 W 15 26 8 14 1026.7 1026.8 9.6
03/08:30am 7.1 3.0 4.6 84 1.1 W 15 28 8 15 1026.2 - 9.6
03/08:00am 6.9 2.5 4.6 85 1.0 WNW 17 26 9 14 1026.0 - 9.6
03/07:30am 6.7 2.6 4.5 86 1.0 W 15 24 8 13 1025.7 - 9.6
03/07:00am 6.5 2.8 4.5 87 0.9 W 13 26 7 14 1025.5 - 9.6
03/06:30am 6.6 2.5 4.6 87 0.9 W 15 26 8 14 1025.1 - 9.6
03/06:00am 6.7 3.0 4.5 86 0.9 W 13 20 7 11 1025.0 1025.1 9.6
03/05:30am 6.8 2.4 4.6 86 1.0 W 17 30 9 16 1024.6 - 9.6
03/05:00am 6.6 2.5 4.4 86 0.9 WNW 15 24 8 13 1024.5 - 9.6
03/04:30am 6.6 2.5 4.4 86 0.9 W 15 24 8 13 1024.5 - 9.6
03/04:00am 6.8 2.4 4.5 85 1.0 W 17 30 9 16 1024.5 - 9.6
03/03:30am 6.7 2.2 4.4 85 1.0 W 17 30 9 16 1024.5 - 9.4
03/03:00am 6.6 2.1 4.1 84 1.1 W 17 32 9 17 1024.6 1024.7 9.4
03/02:30am 6.7 2.2 4.0 83 1.2 W 17 26 9 14 1024.7 - 9.4
03/02:00am 6.9 2.4 4.2 83 1.2 W 17 32 9 17 1024.6 - 9.4
03/01:30am 7.0 3.3 4.3 83 1.2 W 13 22 7 12 1024.4 - 9.4
03/01:00am 7.1 2.7 4.6 84 1.1 W 17 30 9 16 1024.2 - 9.4
03/12:30am 6.8 2.4 4.5 85 1.0 W 17 28 9 15 1024.2 - 9.4
03/12:00am 7.2 2.8 4.7 84 1.1 W 17 32 9 17 1024.2 1024.3 9.4
 
Date/Time
EST
Temp
°C
App
Temp
°C
Dew
Point
Rel
Hum
%
Delta-T
°C
Wind Press
QNH
hPa
Press
MSL
hPa
Rain
since 9 am
mm
Dir
 
Spd
km/h
Gust
km/h
Spd
kts
Gust
kts
02/11:30pm 7.1 2.6 4.4 83 1.2 W 17 32 9 17 1024.1 - 9.2
02/11:00pm 7.1 2.3 4.4 83 1.2 W 19 30 10 16 1023.6 - 9.2
02/10:30pm 7.7 3.3 4.8 82 1.3 W 17 35 9 19 1023.6 - 9.2
02/10:00pm 7.6 2.9 5.1 84 1.1 W 19 33 10 18 1023.5 - 9.2
02/09:30pm 7.3 2.9 4.8 84 1.1 W 17 28 9 15 1023.5 - 9.0
02/09:00pm 7.6 3.3 5.1 84 1.1 W 17 28 9 15 1023.0 1023.1 9.0
02/08:30pm 7.2 2.9 5.2 87 0.9 W 17 24 9 13 1022.8 - 9.0
02/08:00pm 6.8 2.8 5.1 89 0.7 W 15 30 8 16 1022.5 - 9.0
02/07:30pm 6.7 2.7 5.0 89 0.7 WNW 15 26 8 14 1022.3 - 9.0
02/07:00pm 7.0 3.1 5.3 89 0.8 W 15 20 8 11 1021.9 - 9.0
02/06:30pm 7.1 2.9 5.6 90 0.7 W 17 28 9 15 1021.2 - 9.0
02/06:00pm 7.0 2.8 5.5 90 0.7 W 17 26 9 14 1020.7 1020.7 9.0
02/05:30pm 7.0 2.7 5.3 89 0.8 W 17 30 9 16 1020.2 - 8.8
02/05:00pm 6.9 2.0 5.1 88 0.8 W 20 33 11 18 1019.9 - 8.4
02/04:30pm 6.8 2.4 4.6 86 1.0 WSW 17 30 9 16 1019.5 - 8.0
02/04:00pm 7.7 1.5 4.5 80 1.4 W 26 46 14 25 1018.9 - 6.4
02/03:30pm 7.9 1.6 3.8 75 1.8 WSW 26 44 14 24 1017.9 - 6.2
02/03:00pm 8.4 2.1 3.7 72 2.0 WSW 26 50 14 27 1017.5 1017.5 6.2
02/02:30pm 8.7 2.7 5.4 80 1.5 W 26 44 14 24 1017.1 - 6.2
02/02:00pm 8.4 4.0 6.5 88 0.9 W 19 35 10 19 1016.8 - 6.2
02/01:30pm 7.3 2.7 5.4 88 0.8 WSW 19 43 10 23 1016.8 - 6.2
02/01:00pm 7.7 2.9 5.7 87 0.9 WSW 20 41 11 22 1016.8 - 3.8
02/12:30pm 8.3 3.8 5.9 85 1.1 SW 19 39 10 21 1016.6 - 2.2
02/12:00pm 10.0 4.7 6.9 81 1.5 WSW 24 48 13 26 1016.2 1016.2 0.6
02/11:30am 10.8 5.7 6.0 72 2.2 SW 22 39 12 21 1016.4 - 0.2
02/11:00am 11.6 7.7 7.1 74 2.2 W 17 32 9 17 1016.3 - 0.2
02/10:30am 10.0 6.9 7.3 83 1.3 WNW 13 26 7 14 1016.5 - 0.2
02/10:00am 9.7 6.2 7.1 84 1.2 W 15 26 8 14 1016.7 - 0.2
02/09:30am 9.6 5.7 7.2 85 1.1 W 17 32 9 17 1016.8 - 0.0
02/09:00am 9.7 5.2 7.0 83 1.3 SW 20 37 11 20 1016.7 1016.7 0.2
02/08:30am 10.5 6.7 5.7 72 2.2 WSW 15 28 8 15 1016.0 - 0.0
02/08:00am 8.0 4.7 2.7 69 2.2 WNW 9 20 5 11 1015.4 - 0.0
02/07:30am 7.7 4.0 2.2 68 2.3 NNW 11 15 6 8 1015.0 - 0.0
02/07:00am 7.6 4.2 1.9 67 2.3 NNW 9 13 5 7 1014.9 - 0.0
02/06:30am 7.6 3.4 1.9 67 2.3 NW 13 19 7 10 1014.6 - 0.0
02/06:00am 7.7 2.8 1.8 66 2.4 NNW 17 22 9 12 1014.4 1014.4 0.0
02/05:30am 7.4 3.6 1.7 67 2.3 NW 11 19 6 10 1014.6 - 0.0
02/05:00am 7.3 3.1 1.6 67 2.3 NNW 13 17 7 9 1014.9 - 0.0
02/04:30am 7.3 3.1 1.6 67 2.3 NNW 13 20 7 11 1015.2 - 0.0
02/04:00am 7.3 3.2 2.0 69 2.2 NNW 13 19 7 10 1015.5 - 0.0
02/03:30am 7.1 3.4 2.2 71 2.0 NNW 11 15 6 8 1016.0 - 0.0
02/03:00am 7.2 3.5 2.1 70 2.1 NW 11 20 6 11 1016.7 1016.7 0.0
02/02:30am 7.3 2.8 2.4 71 2.0 NNW 15 20 8 11 1016.8 - 0.0
02/02:00am 7.4 3.5 3.5 76 1.7 NNW 13 19 7 10 1017.3 - 0.0
02/01:30am 6.7 3.3 4.2 84 1.1 NNW 11 15 6 8 1017.7 - 0.0
02/01:00am 6.4 3.1 4.6 88 0.8 NNW 11 15 6 8 1018.3 - 0.0
02/12:30am 6.4 3.1 4.7 89 0.7 NNW 11 15 6 8 1018.8 - 0.0
02/12:00am 6.2 2.9 4.5 89 0.7 NW 11 15 6 8 1019.2 1019.2 0.0
 
Date/Time
EST
Temp
°C
App
Temp
°C
Dew
Point
Rel
Hum
%
Delta-T
°C
Wind Press
QNH
hPa
Press
MSL
hPa
Rain
since 9 am
mm
Dir
 
Spd
km/h
Gust
km/h
Spd
kts
Gust
kts
01/11:30pm 6.0 3.0 4.3 89 0.7 NW 9 13 5 7 1019.5 - 0.0
01/11:00pm 6.5 2.9 4.8 89 0.7 NW 13 19 7 10 1019.8 - 0.0
01/10:30pm 6.0 2.6 4.2 88 0.8 NNW 11 17 6 9 1020.0 - 0.0
01/10:00pm 5.8 2.7 3.8 87 0.8 NW 9 9 5 5 1020.6 - 0.0
01/09:30pm 7.1 4.2 4.9 86 1.0 NNW 9 13 5 7 1021.2 - 0.0
01/09:00pm 7.3 4.5 5.3 87 0.9 WNW 9 13 5 7 1021.5 1021.6 0.0
01/08:30pm 7.4 4.6 5.2 86 1.0 WNW 9 11 5 6 1021.5 - 0.0

Other Formats:

Comma delimited format used in spreadsheet applications
http://www.bom.gov.au/fwo/IDV60801/IDV60801.94935.axf

JavaScript Object Notation format (JSON) in row-major order
http://www.bom.gov.au/fwo/IDV60801/IDV60801.94935.json